sensor_id;sensor_type;location;lat;lon;timestamp;temperature;humidity
72591;SHT31;60625;51.212;5.952;2022-12-05T00:03:55;3.21;85.61
72591;SHT31;60625;51.212;5.952;2022-12-05T00:08:58;3.21;85.49
72591;SHT31;60625;51.212;5.952;2022-12-05T00:13:59;3.19;85.39
72591;SHT31;60625;51.212;5.952;2022-12-05T00:19:02;3.18;85.41
72591;SHT31;60625;51.212;5.952;2022-12-05T00:24:06;3.19;85.54
72591;SHT31;60625;51.212;5.952;2022-12-05T00:29:10;3.20;85.64
72591;SHT31;60625;51.212;5.952;2022-12-05T00:34:12;3.20;85.64
72591;SHT31;60625;51.212;5.952;2022-12-05T00:39:13;3.21;85.59
72591;SHT31;60625;51.212;5.952;2022-12-05T00:44:14;3.22;85.71
72591;SHT31;60625;51.212;5.952;2022-12-05T00:49:15;3.22;85.72
72591;SHT31;60625;51.212;5.952;2022-12-05T00:54:16;3.23;85.90
72591;SHT31;60625;51.212;5.952;2022-12-05T00:59:18;3.23;85.91
72591;SHT31;60625;51.212;5.952;2022-12-05T01:04:20;3.24;86.01
72591;SHT31;60625;51.212;5.952;2022-12-05T01:09:24;3.25;86.03
72591;SHT31;60625;51.212;5.952;2022-12-05T01:14:25;3.23;86.10
72591;SHT31;60625;51.212;5.952;2022-12-05T01:19:29;3.22;86.18
72591;SHT31;60625;51.212;5.952;2022-12-05T01:24:31;3.23;86.19
72591;SHT31;60625;51.212;5.952;2022-12-05T01:29:32;3.23;86.11
72591;SHT31;60625;51.212;5.952;2022-12-05T01:34:33;3.23;86.14
72591;SHT31;60625;51.212;5.952;2022-12-05T01:39:33;3.23;86.22
72591;SHT31;60625;51.212;5.952;2022-12-05T01:49:39;3.22;86.30
72591;SHT31;60625;51.212;5.952;2022-12-05T01:54:42;3.24;86.37
72591;SHT31;60625;51.212;5.952;2022-12-05T01:59:48;3.25;86.36
72591;SHT31;60625;51.212;5.952;2022-12-05T02:05:00;3.26;86.40
72591;SHT31;60625;51.212;5.952;2022-12-05T02:10:09;3.26;86.33
72591;SHT31;60625;51.212;5.952;2022-12-05T02:30:39;3.28;86.13
72591;SHT31;60625;51.212;5.952;2022-12-05T02:36:02;3.29;86.13
72591;SHT31;60625;51.212;5.952;2022-12-05T02:41:17;3.30;86.23
72591;SHT31;60625;51.212;5.952;2022-12-05T02:46:30;3.30;86.19
72591;SHT31;60625;51.212;5.952;2022-12-05T02:51:34;3.30;86.13
72591;SHT31;60625;51.212;5.952;2022-12-05T02:56:45;3.30;86.09
72591;SHT31;60625;51.212;5.952;2022-12-05T03:01:47;3.32;86.03
72591;SHT31;60625;51.212;5.952;2022-12-05T03:06:53;3.35;85.96
72591;SHT31;60625;51.212;5.952;2022-12-05T03:12:00;3.36;85.84
72591;SHT31;60625;51.212;5.952;2022-12-05T03:17:09;3.38;85.86
72591;SHT31;60625;51.212;5.952;2022-12-05T03:22:26;3.39;85.82
72591;SHT31;60625;51.212;5.952;2022-12-05T03:27:45;3.39;85.78
72591;SHT31;60625;51.212;5.952;2022-12-05T03:54:31;3.41;85.86
72591;SHT31;60625;51.212;5.952;2022-12-05T03:59:59;3.41;85.93
72591;SHT31;60625;51.212;5.952;2022-12-05T04:05:07;3.41;86.04
72591;SHT31;60625;51.212;5.952;2022-12-05T04:10:22;3.40;86.11
72591;SHT31;60625;51.212;5.952;2022-12-05T04:15:30;3.41;86.14
72591;SHT31;60625;51.212;5.952;2022-12-05T04:20:52;3.41;86.13
72591;SHT31;60625;51.212;5.952;2022-12-05T04:26:20;3.41;86.18
72591;SHT31;60625;51.212;5.952;2022-12-05T04:31:32;3.41;86.25
72591;SHT31;60625;51.212;5.952;2022-12-05T04:36:53;3.42;86.33
72591;SHT31;60625;51.212;5.952;2022-12-05T04:42:00;3.44;86.50
72591;SHT31;60625;51.212;5.952;2022-12-05T04:47:07;3.46;86.71
72591;SHT31;60625;51.212;5.952;2022-12-05T04:52:34;3.47;86.61
72591;SHT31;60625;51.212;5.952;2022-12-05T04:57:49;3.48;86.55
72591;SHT31;60625;51.212;5.952;2022-12-05T05:03:13;3.49;86.46
72591;SHT31;60625;51.212;5.952;2022-12-05T05:08:50;3.50;86.58
72591;SHT31;60625;51.212;5.952;2022-12-05T05:13:54;3.51;86.68
72591;SHT31;60625;51.212;5.952;2022-12-05T05:18:56;3.51;86.72
72591;SHT31;60625;51.212;5.952;2022-12-05T05:23:57;3.51;86.74
72591;SHT31;60625;51.212;5.952;2022-12-05T05:28:59;3.51;86.76
72591;SHT31;60625;51.212;5.952;2022-12-05T05:34:00;3.51;86.76
72591;SHT31;60625;51.212;5.952;2022-12-05T05:39:03;3.49;86.86
72591;SHT31;60625;51.212;5.952;2022-12-05T05:44:05;3.48;87.00
72591;SHT31;60625;51.212;5.952;2022-12-05T05:49:06;3.49;87.08
72591;SHT31;60625;51.212;5.952;2022-12-05T05:54:07;3.47;87.03
72591;SHT31;60625;51.212;5.952;2022-12-05T05:59:09;3.46;87.07
72591;SHT31;60625;51.212;5.952;2022-12-05T06:04:10;3.45;87.10
72591;SHT31;60625;51.212;5.952;2022-12-05T06:09:13;3.45;87.13
72591;SHT31;60625;51.212;5.952;2022-12-05T06:14:14;3.45;87.18
72591;SHT31;60625;51.212;5.952;2022-12-05T06:19:14;3.48;87.22
72591;SHT31;60625;51.212;5.952;2022-12-05T06:24:15;3.49;87.22
72591;SHT31;60625;51.212;5.952;2022-12-05T06:29:17;3.50;87.12
72591;SHT31;60625;51.212;5.952;2022-12-05T06:34:18;3.50;87.22
72591;SHT31;60625;51.212;5.952;2022-12-05T06:39:18;3.50;87.30
72591;SHT31;60625;51.212;5.952;2022-12-05T06:44:19;3.48;87.39
72591;SHT31;60625;51.212;5.952;2022-12-05T06:49:21;3.48;87.43
72591;SHT31;60625;51.212;5.952;2022-12-05T06:54:25;3.48;87.42
72591;SHT31;60625;51.212;5.952;2022-12-05T06:59:26;3.48;87.47
72591;SHT31;60625;51.212;5.952;2022-12-05T07:04:27;3.48;87.51
72591;SHT31;60625;51.212;5.952;2022-12-05T07:09:28;3.48;87.50
72591;SHT31;60625;51.212;5.952;2022-12-05T07:14:48;3.50;87.60
72591;SHT31;60625;51.212;5.952;2022-12-05T07:19:49;3.51;87.64
72591;SHT31;60625;51.212;5.952;2022-12-05T07:24:51;3.51;87.58
72591;SHT31;60625;51.212;5.952;2022-12-05T07:29:52;3.52;87.61
72591;SHT31;60625;51.212;5.952;2022-12-05T07:34:53;3.52;87.63
72591;SHT31;60625;51.212;5.952;2022-12-05T07:39:53;3.55;87.76
72591;SHT31;60625;51.212;5.952;2022-12-05T07:44:54;3.56;87.80
72591;SHT31;60625;51.212;5.952;2022-12-05T07:49:54;3.55;87.80
72591;SHT31;60625;51.212;5.952;2022-12-05T07:54:55;3.55;87.85
72591;SHT31;60625;51.212;5.952;2022-12-05T07:59:57;3.55;87.87
72591;SHT31;60625;51.212;5.952;2022-12-05T08:04:58;3.56;87.91
72591;SHT31;60625;51.212;5.952;2022-12-05T08:09:59;3.55;87.92
72591;SHT31;60625;51.212;5.952;2022-12-05T08:14:59;3.57;87.90
72591;SHT31;60625;51.212;5.952;2022-12-05T08:20:00;3.58;87.90
72591;SHT31;60625;51.212;5.952;2022-12-05T08:25:01;3.58;87.85
72591;SHT31;60625;51.212;5.952;2022-12-05T08:30:03;3.58;87.76
72591;SHT31;60625;51.212;5.952;2022-12-05T08:35:05;3.57;87.66
72591;SHT31;60625;51.212;5.952;2022-12-05T08:40:06;3.56;87.69
72591;SHT31;60625;51.212;5.952;2022-12-05T08:45:08;3.54;87.54
72591;SHT31;60625;51.212;5.952;2022-12-05T08:50:09;3.54;87.56
72591;SHT31;60625;51.212;5.952;2022-12-05T08:55:10;3.51;87.43
72591;SHT31;60625;51.212;5.952;2022-12-05T09:00:11;3.49;87.55
72591;SHT31;60625;51.212;5.952;2022-12-05T09:05:12;3.48;87.60
72591;SHT31;60625;51.212;5.952;2022-12-05T09:10:13;3.47;87.56
72591;SHT31;60625;51.212;5.952;2022-12-05T09:15:17;3.43;87.31
72591;SHT31;60625;51.212;5.952;2022-12-05T09:20:18;3.42;87.27
72591;SHT31;60625;51.212;5.952;2022-12-05T09:25:18;3.42;87.36
72591;SHT31;60625;51.212;5.952;2022-12-05T09:30:19;3.43;87.32
72591;SHT31;60625;51.212;5.952;2022-12-05T09:35:20;3.42;87.07
72591;SHT31;60625;51.212;5.952;2022-12-05T09:40:20;3.39;86.90
72591;SHT31;60625;51.212;5.952;2022-12-05T09:45:22;3.35;86.69
72591;SHT31;60625;51.212;5.952;2022-12-05T09:50:29;3.31;86.57
72591;SHT31;60625;51.212;5.952;2022-12-05T10:17:35;3.26;86.19
72591;SHT31;60625;51.212;5.952;2022-12-05T10:22:49;3.27;86.29
72591;SHT31;60625;51.212;5.952;2022-12-05T10:28:05;3.27;86.04
72591;SHT31;60625;51.212;5.952;2022-12-05T10:33:17;3.23;86.03
72591;SHT31;60625;51.212;5.952;2022-12-05T10:38:26;3.24;86.14
72591;SHT31;60625;51.212;5.952;2022-12-05T10:43:31;3.26;86.19
72591;SHT31;60625;51.212;5.952;2022-12-05T10:48:40;3.29;86.32
72591;SHT31;60625;51.212;5.952;2022-12-05T10:53:44;3.33;86.35
72591;SHT31;60625;51.212;5.952;2022-12-05T10:58:55;3.34;86.28
72591;SHT31;60625;51.212;5.952;2022-12-05T11:04:04;3.33;86.10
72591;SHT31;60625;51.212;5.952;2022-12-05T11:09:22;3.29;85.68
72591;SHT31;60625;51.212;5.952;2022-12-05T11:14:35;3.27;85.78
72591;SHT31;60625;51.212;5.952;2022-12-05T11:19:37;3.29;85.83
72591;SHT31;60625;51.212;5.952;2022-12-05T11:24:38;3.30;85.86
72591;SHT31;60625;51.212;5.952;2022-12-05T11:29:39;3.34;85.82
72591;SHT31;60625;51.212;5.952;2022-12-05T11:34:45;3.35;85.89
72591;SHT31;60625;51.212;5.952;2022-12-05T11:40:16;3.39;86.14
72591;SHT31;60625;51.212;5.952;2022-12-05T11:51:07;3.33;85.96
72591;SHT31;60625;51.212;5.952;2022-12-05T12:02:00;3.27;85.95
72591;SHT31;60625;51.212;5.952;2022-12-05T12:07:23;3.22;86.10
72591;SHT31;60625;51.212;5.952;2022-12-05T12:13:26;3.21;86.22
72591;SHT31;60625;51.212;5.952;2022-12-05T12:40:29;3.08;86.06
72591;SHT31;60625;51.212;5.952;2022-12-05T12:51:16;3.06;86.17
72591;SHT31;60625;51.212;5.952;2022-12-05T13:07:20;3.10;86.12
72591;SHT31;60625;51.212;5.952;2022-12-05T13:12:37;3.09;86.07
72591;SHT31;60625;51.212;5.952;2022-12-05T13:17:44;3.03;86.11
72591;SHT31;60625;51.212;5.952;2022-12-05T13:22:48;3.05;86.42
72591;SHT31;60625;51.212;5.952;2022-12-05T13:27:56;3.12;86.31
72591;SHT31;60625;51.212;5.952;2022-12-05T13:33:05;3.10;86.13
72591;SHT31;60625;51.212;5.952;2022-12-05T13:43:53;3.16;86.31
72591;SHT31;60625;51.212;5.952;2022-12-05T13:49:00;3.14;86.25
72591;SHT31;60625;51.212;5.952;2022-12-05T13:54:10;3.18;86.44
72591;SHT31;60625;51.212;5.952;2022-12-05T14:05:00;3.19;86.37
72591;SHT31;60625;51.212;5.952;2022-12-05T14:10:22;3.18;86.36
72591;SHT31;60625;51.212;5.952;2022-12-05T14:15:30;3.17;86.33
72591;SHT31;60625;51.212;5.952;2022-12-05T14:26:30;3.14;86.39
72591;SHT31;60625;51.212;5.952;2022-12-05T14:32:04;3.15;86.37
72591;SHT31;60625;51.212;5.952;2022-12-05T14:37:30;3.15;86.39
72591;SHT31;60625;51.212;5.952;2022-12-05T14:42:53;3.15;86.40
72591;SHT31;60625;51.212;5.952;2022-12-05T14:58:18;3.07;86.49
72591;SHT31;60625;51.212;5.952;2022-12-05T15:03:28;3.08;86.50
72591;SHT31;60625;51.212;5.952;2022-12-05T15:08:42;3.07;86.47
72591;SHT31;60625;51.212;5.952;2022-12-05T15:13:47;3.06;86.46
72591;SHT31;60625;51.212;5.952;2022-12-05T15:18:49;2.98;86.47
72591;SHT31;60625;51.212;5.952;2022-12-05T15:40:01;2.85;86.82
72591;SHT31;60625;51.212;5.952;2022-12-05T15:50:35;2.85;86.88
72591;SHT31;60625;51.212;5.952;2022-12-05T15:55:42;2.85;86.93
72591;SHT31;60625;51.212;5.952;2022-12-05T16:00:51;2.84;86.91
72591;SHT31;60625;51.212;5.952;2022-12-05T16:12:04;2.81;87.13
72591;SHT31;60625;51.212;5.952;2022-12-05T16:17:22;2.79;87.04
72591;SHT31;60625;51.212;5.952;2022-12-05T16:22:23;2.75;87.12
72591;SHT31;60625;51.212;5.952;2022-12-05T16:27:34;2.73;87.35
72591;SHT31;60625;51.212;5.952;2022-12-05T16:32:44;2.77;87.50
72591;SHT31;60625;51.212;5.952;2022-12-05T16:38:01;2.78;87.44
72591;SHT31;60625;51.212;5.952;2022-12-05T16:43:46;2.78;87.46
72591;SHT31;60625;51.212;5.952;2022-12-05T16:54:21;2.74;87.65
72591;SHT31;60625;51.212;5.952;2022-12-05T16:59:32;2.71;87.72
72591;SHT31;60625;51.212;5.952;2022-12-05T17:04:36;2.70;87.86
72591;SHT31;60625;51.212;5.952;2022-12-05T17:09:36;2.69;87.89
72591;SHT31;60625;51.212;5.952;2022-12-05T17:14:37;2.66;87.99
72591;SHT31;60625;51.212;5.952;2022-12-05T17:19:37;2.64;88.17
72591;SHT31;60625;51.212;5.952;2022-12-05T17:24:38;2.62;88.42
72591;SHT31;60625;51.212;5.952;2022-12-05T17:29:39;2.60;88.59
72591;SHT31;60625;51.212;5.952;2022-12-05T17:34:39;2.60;88.75
72591;SHT31;60625;51.212;5.952;2022-12-05T17:39:39;2.62;88.81
72591;SHT31;60625;51.212;5.952;2022-12-05T17:44:40;2.66;88.90
72591;SHT31;60625;51.212;5.952;2022-12-05T17:49:41;2.67;89.00
72591;SHT31;60625;51.212;5.952;2022-12-05T17:54:41;2.68;89.08
72591;SHT31;60625;51.212;5.952;2022-12-05T17:59:42;2.72;89.17
72591;SHT31;60625;51.212;5.952;2022-12-05T18:04:42;2.75;89.20
72591;SHT31;60625;51.212;5.952;2022-12-05T18:09:43;2.77;89.24
72591;SHT31;60625;51.212;5.952;2022-12-05T18:14:44;2.80;89.30
72591;SHT31;60625;51.212;5.952;2022-12-05T18:19:44;2.83;89.31
72591;SHT31;60625;51.212;5.952;2022-12-05T18:24:46;2.83;89.35
72591;SHT31;60625;51.212;5.952;2022-12-05T18:29:46;2.83;89.47
72591;SHT31;60625;51.212;5.952;2022-12-05T18:34:48;2.85;89.51
72591;SHT31;60625;51.212;5.952;2022-12-05T18:39:48;2.88;89.50
72591;SHT31;60625;51.212;5.952;2022-12-05T18:44:48;2.90;89.57
72591;SHT31;60625;51.212;5.952;2022-12-05T18:49:49;2.92;89.60
72591;SHT31;60625;51.212;5.952;2022-12-05T18:54:50;2.93;89.66
72591;SHT31;60625;51.212;5.952;2022-12-05T18:59:50;2.96;89.70
72591;SHT31;60625;51.212;5.952;2022-12-05T19:04:51;2.99;89.70
72591;SHT31;60625;51.212;5.952;2022-12-05T19:09:51;3.03;89.75
72591;SHT31;60625;51.212;5.952;2022-12-05T19:14:53;3.05;89.76
72591;SHT31;60625;51.212;5.952;2022-12-05T19:19:53;3.05;89.84
72591;SHT31;60625;51.212;5.952;2022-12-05T19:24:56;3.07;89.90
72591;SHT31;60625;51.212;5.952;2022-12-05T19:29:56;3.09;89.93
72591;SHT31;60625;51.212;5.952;2022-12-05T19:34:57;3.11;89.99
72591;SHT31;60625;51.212;5.952;2022-12-05T19:39:57;3.14;90.00
72591;SHT31;60625;51.212;5.952;2022-12-05T19:44:57;3.16;89.99
72591;SHT31;60625;51.212;5.952;2022-12-05T19:49:58;3.19;89.98
72591;SHT31;60625;51.212;5.952;2022-12-05T19:54:58;3.22;89.92
72591;SHT31;60625;51.212;5.952;2022-12-05T19:59:59;3.23;89.92
72591;SHT31;60625;51.212;5.952;2022-12-05T20:05:00;3.20;89.94
72591;SHT31;60625;51.212;5.952;2022-12-05T20:10:00;3.18;90.01
72591;SHT31;60625;51.212;5.952;2022-12-05T20:15:00;3.16;90.10
72591;SHT31;60625;51.212;5.952;2022-12-05T20:20:01;3.17;90.07
72591;SHT31;60625;51.212;5.952;2022-12-05T20:25:05;3.17;90.04
72591;SHT31;60625;51.212;5.952;2022-12-05T20:30:07;3.15;90.05
72591;SHT31;60625;51.212;5.952;2022-12-05T20:35:08;3.18;90.04
72591;SHT31;60625;51.212;5.952;2022-12-05T20:40:08;3.18;90.07
72591;SHT31;60625;51.212;5.952;2022-12-05T20:45:09;3.17;90.09
72591;SHT31;60625;51.212;5.952;2022-12-05T20:50:10;3.18;90.10
72591;SHT31;60625;51.212;5.952;2022-12-05T20:55:12;3.19;90.11
72591;SHT31;60625;51.212;5.952;2022-12-05T21:00:13;3.21;90.17
72591;SHT31;60625;51.212;5.952;2022-12-05T21:05:13;3.22;90.20
72591;SHT31;60625;51.212;5.952;2022-12-05T21:10:14;3.19;90.29
72591;SHT31;60625;51.212;5.952;2022-12-05T21:15:14;3.18;90.40
72591;SHT31;60625;51.212;5.952;2022-12-05T21:20:15;3.20;90.45
72591;SHT31;60625;51.212;5.952;2022-12-05T21:25:16;3.22;90.50
72591;SHT31;60625;51.212;5.952;2022-12-05T21:30:16;3.22;90.55
72591;SHT31;60625;51.212;5.952;2022-12-05T21:35:17;3.23;90.61
72591;SHT31;60625;51.212;5.952;2022-12-05T21:40:17;3.24;90.65
72591;SHT31;60625;51.212;5.952;2022-12-05T21:45:18;3.26;90.63
72591;SHT31;60625;51.212;5.952;2022-12-05T21:50:18;3.27;90.69
72591;SHT31;60625;51.212;5.952;2022-12-05T21:55:19;3.29;90.69
72591;SHT31;60625;51.212;5.952;2022-12-05T22:00:19;3.32;90.70
72591;SHT31;60625;51.212;5.952;2022-12-05T22:05:20;3.36;90.68
72591;SHT31;60625;51.212;5.952;2022-12-05T22:10:20;3.40;90.64
72591;SHT31;60625;51.212;5.952;2022-12-05T22:15:21;3.44;90.61
72591;SHT31;60625;51.212;5.952;2022-12-05T22:20:21;3.48;90.61
72591;SHT31;60625;51.212;5.952;2022-12-05T22:25:23;3.53;90.60
72591;SHT31;60625;51.212;5.952;2022-12-05T22:30:23;3.56;90.58
72591;SHT31;60625;51.212;5.952;2022-12-05T22:35:24;3.59;90.54
72591;SHT31;60625;51.212;5.952;2022-12-05T22:40:24;3.59;90.50
72591;SHT31;60625;51.212;5.952;2022-12-05T22:45:24;3.59;90.57
72591;SHT31;60625;51.212;5.952;2022-12-05T22:50:25;3.59;90.60
72591;SHT31;60625;51.212;5.952;2022-12-05T22:55:25;3.60;90.60
72591;SHT31;60625;51.212;5.952;2022-12-05T23:00:26;3.61;90.60
72591;SHT31;60625;51.212;5.952;2022-12-05T23:05:26;3.62;90.67
72591;SHT31;60625;51.212;5.952;2022-12-05T23:10:27;3.63;90.69
72591;SHT31;60625;51.212;5.952;2022-12-05T23:15:27;3.65;90.70
72591;SHT31;60625;51.212;5.952;2022-12-05T23:20:28;3.67;90.72
72591;SHT31;60625;51.212;5.952;2022-12-05T23:25:30;3.69;90.77
72591;SHT31;60625;51.212;5.952;2022-12-05T23:30:30;3.72;90.80
72591;SHT31;60625;51.212;5.952;2022-12-05T23:35:32;3.75;90.82
72591;SHT31;60625;51.212;5.952;2022-12-05T23:40:34;3.79;90.86
72591;SHT31;60625;51.212;5.952;2022-12-05T23:45:35;3.81;90.92
72591;SHT31;60625;51.212;5.952;2022-12-05T23:50:36;3.83;90.94
72591;SHT31;60625;51.212;5.952;2022-12-05T23:55:36;3.86;90.98
